• Join FlightAware (Why Join?)
  • Login
  • US Flag 
02:49AM EDT


 

Airport Tracker/Info


-or-


 

Live Flight TrackerFlight Track Log ✈ AAL1890 ✈ 10-May-2013 ✈ KLAS - KDFW

Flight Track Log - Related Links

Times and Time Zones

All times are in EDT time to prevent confusion due to time zone crossing. See the AAL1890 flight status page for this flight to view local times or setup timezone preferences in your user account.

Time Position Orientation Groundspeed Altitude Reporting Facility
EDT Latitude Longitude Course Direction KTS MPH feet Rate Location/Type
10:12AM 36.0756 -115.1658 84° East 164 189 2,900  Level Los Angeles Center
10:13AM 36.0731 -115.2436 268° West 222 255 4,900 1,860 Climbing Los Angeles Center
10:14AM 35.8384 -115.1861 103° East  Level FlightAware Approximate
10:14AM 36.0289 -115.2769 211° Southwest 266 306 6,600  Level Los Angeles Center
10:14AM 35.9967 -115.2900 198° South 288 331 7,000 480 Climbing Los Angeles Center
10:15AM 35.8184 -115.0481 84° East  Level FlightAware Approximate
10:15AM 35.9494 -115.2906 181° South 284 327 7,100  Level Los Angeles Center
10:15AM 35.9114 -115.2756 162° South 281 323 8,500 2,820 Climbing Los Angeles Center
10:16AM 35.8311 -114.9079 84° East  Level FlightAware Approximate
10:16AM 35.8911 -115.2350 122° Southeast 281 323 10,000  Level Los Angeles Center
10:16AM 35.8897 -115.1950 92° East 279 321 11,000 1,620 Climbing Los Angeles Center
10:17AM 35.8416 -114.7675 84° East  Level FlightAware Approximate
10:17AM 35.8914 -115.1336 88° East 294 338 11,700  Level Los Angeles Center
10:18AM 35.8969 -114.9889 87° East 341 392 14,800 2,700 Climbing Los Angeles Center
10:19AM 35.8994 -114.8611 89° East 364 419 17,300 2,340 Climbing Los Angeles Center
10:20AM 35.9036 -114.7278 88° East 381 438 19,700 2,220 Climbing Los Angeles Center
10:21AM 35.9069 -114.5894 88° East 397 457 21,900 2,040 Climbing Los Angeles Center
10:22AM 35.9047 -114.4472 91° East 409 471 23,900 1,740 Climbing Los Angeles Center
10:23AM 35.8908 -114.2992 97° East 428 493 25,600 1,800 Climbing Los Angeles Center
10:24AM 35.8792 -114.1158 94° East 442 509 27,700 1,980 Climbing Los Angeles Center
10:25AM 35.8697 -113.9608 94° East 451 519 29,700 2,040 Climbing Los Angeles Center
10:26AM 35.8589 -113.8083 95° East 450 518 32,000 1,980 Climbing Los Angeles Center
10:27AM 35.8475 -113.6592 95° East 442 509 33,800 1,620 Climbing Los Angeles Center
10:28AM 35.8344 -113.5036 96° East 441 507 35,400 1,380 Climbing Los Angeles Center
10:29AM 35.8225 -113.3536 96° East 440 506 36,700 1,200 Climbing Los Angeles Center
10:30AM 35.8111 -113.2050 95° East 438 504 37,900 900 Climbing Los Angeles Center
10:31AM 35.7983 -113.0556 96° East 437 503 38,600 480 Climbing Los Angeles Center
10:32AM 35.7858 -112.9025 96° East 444 511 39,000 180 Climbing Los Angeles Center
10:33AM 35.7728 -112.7467 96° East 453 521 39,000  Level Los Angeles Center
10:34AM 35.7564 -112.5617 96° East 452 520 39,000  Level Los Angeles Center
10:35AM 35.7431 -112.4100 96° East 447 514 39,000  Level Los Angeles Center
10:36AM 35.7289 -112.2600 97° East 443 510 39,000  Level Los Angeles Center
10:37AM 35.7156 -112.1092 96° East 443 510 39,000  Level Los Angeles Center
10:39AM 35.7028 -111.9581 96° East 445 512 39,000  Level Los Angeles Center
10:40AM 35.6867 -111.8044 97° East 452 520 39,000  Level Los Angeles Center
10:41AM 35.6683 -111.6197 97° East 453 521 39,000  Level Albuquerque Center
10:42AM 35.6533 -111.4664 97° East 454 522 39,000  Level Albuquerque Center
10:43AM 35.6367 -111.2922 97° East 456 525 39,000  Level Albuquerque Center
10:44AM 35.6217 -111.1433 97° East 458 527 39,000  Level Albuquerque Center
10:45AM 35.6044 -110.9717 97° East 456 525 39,000  Level Albuquerque Center
10:46AM 35.5883 -110.8219 97° East 459 528 39,000  Level Albuquerque Center
10:47AM 35.5717 -110.6506 97° East 456 525 39,000  Level Albuquerque Center
10:48AM 35.5558 -110.5056 98° East 453 521 39,000  Level Albuquerque Center
10:49AM 35.5372 -110.3358 98° East 450 518 39,000  Level Albuquerque Center
10:50AM 35.5225 -110.1914 97° East 447 514 39,000  Level Albuquerque Center
10:51AM 35.5072 -110.0464 97° East 448 516 39,000  Level Albuquerque Center
10:52AM 35.4897 -109.8792 97° East 445 512 39,000  Level Albuquerque Center
10:53AM 35.4736 -109.7339 98° East 447 514 39,000  Level Albuquerque Center
10:54AM 35.4550 -109.5636 98° East 451 519 39,000  Level Albuquerque Center
10:55AM 35.4386 -109.4167 98° East 454 522 39,000  Level Albuquerque Center
10:56AM 35.4183 -109.2464 98° East 455 524 39,000  Level Albuquerque Center
10:57AM 35.4019 -109.0997 98° East 455 524 39,000  Level Albuquerque Center
10:58AM 35.3817 -108.9292 98° East 456 525 39,000  Level Albuquerque Center
10:59AM 35.3642 -108.7836 98° East 454 522 39,000  Level Albuquerque Center
11:00AM 35.3444 -108.6133 98° East 454 522 39,000  Level Albuquerque Center
11:01AM 35.3269 -108.4664 98° East 455 524 39,000  Level Albuquerque Center
11:02AM 35.3064 -108.2950 98° East 457 526 39,000  Level Albuquerque Center
11:03AM 35.2872 -108.1464 99° East 460 529 39,000  Level Albuquerque Center
11:04AM 35.2661 -107.9739 98° East 461 531 39,000  Level Albuquerque Center
11:05AM 35.2467 -107.8261 99° East 461 531 39,000  Level Albuquerque Center
11:06AM 35.2242 -107.6533 99° East 461 531 39,000  Level Albuquerque Center
11:08AM 35.2044 -107.5058 99° East 460 529 39,000  Level Albuquerque Center
11:09AM 35.1836 -107.3572 100° East 463 533 39,000  Level Albuquerque Center
11:10AM 35.1603 -107.1833 99° East 464 534 39,000  Level Albuquerque Center
11:11AM 35.1375 -107.0092 99° East 465 535 39,000  Level Albuquerque Center
11:12AM 35.1169 -106.8603 100° East 465 535 39,000  Level Albuquerque Center
11:13AM 35.0908 -106.6900 101° East 459 528 39,000  Level Albuquerque Center
11:14AM 35.0719 -106.5356 98° East 467 537 39,000  Level Albuquerque Center
11:15AM 35.0489 -106.3758 100° East 476 548 39,000  Level Albuquerque Center
11:16AM 35.0272 -106.2222 100° East 465 535 39,000  Level Albuquerque Center
11:17AM 35.0044 -106.0667 100° East 466 536 39,000  Level Albuquerque Center
11:18AM 34.9817 -105.9094 100° East 470 541 39,000  Level Albuquerque Center
11:19AM 34.9536 -105.7206 100° East 471 542 39,000  Level Albuquerque Center
11:20AM 34.9294 -105.5614 100° East 473 544 39,000  Level Albuquerque Center
11:21AM 34.9067 -105.4031 100° East 473 544 39,000  Level Albuquerque Center
11:22AM 34.8822 -105.2442 101° East 474 545 39,000  Level Albuquerque Center
11:23AM 34.8581 -105.0850 100° East 475 547 39,000  Level Albuquerque Center
11:24AM 34.8344 -104.9264 100° East 475 547 39,000  Level Albuquerque Center
11:25AM 34.8100 -104.7681 101° East 475 547 39,000  Level Albuquerque Center
11:26AM 34.7819 -104.5847 101° East 473 544 39,000  Level Albuquerque Center
11:27AM 34.7575 -104.4311 101° East 466 536 39,000  Level Albuquerque Center
11:28AM 34.7322 -104.2733 101° East 470 541 39,000  Level Albuquerque Center
11:29AM 34.7083 -104.1164 100° East 472 543 39,000  Level Albuquerque Center
11:30AM 34.6825 -103.9586 101° East 474 545 39,000  Level Albuquerque Center
11:31AM 34.6519 -103.7756 101° East 473 544 39,000  Level Albuquerque Center
11:32AM 34.6256 -103.6161 101° East 478 550 39,000  Level Albuquerque Center
11:33AM 34.6006 -103.4569 101° East 477 549 39,000  Level Albuquerque Center
11:34AM 34.5739 -103.2983 101° East 478 550 39,000  Level Albuquerque Center
11:35AM 34.5458 -103.1381 102° East 481 554 39,000  Level Albuquerque Center
11:36AM 34.5192 -102.9767 101° East 483 556 39,000  Level Albuquerque Center
11:37AM 34.4939 -102.8131 101° East 489 563 39,000  Level Albuquerque Center
11:39AM 34.4725 -102.6189 98° East 491 565 39,000  Level Albuquerque Center
11:40AM 34.4542 -102.4539 98° East 494 568 39,000  Level Albuquerque Center
11:41AM 34.4375 -102.2906 97° East 494 568 39,000  Level Albuquerque Center
11:42AM 34.4211 -102.1261 97° East 495 570 39,000  Level Albuquerque Center
11:43AM 34.4031 -101.9603 97° East 497 572 39,000  Level Albuquerque Center
11:44AM 34.3847 -101.7964 98° East 497 572 39,000  Level Albuquerque Center
11:45AM 34.3642 -101.5997 97° East 487 560 39,000  Level Fort Worth Center
11:46AM 34.3444 -101.4353 98° East 496 571 39,000  Level Fort Worth Center
11:47AM 34.3267 -101.2736 98° East 496 571 39,000  Level Fort Worth Center
11:48AM 34.3086 -101.1067 97° East 491 565 39,000  Level Fort Worth Center
11:49AM 34.2883 -100.9450 99° East 486 559 39,000  Level Fort Worth Center
11:50AM 34.2678 -100.7808 99° East 486 559 39,000  Level Fort Worth Center
11:51AM 34.2492 -100.6194 98° East 486 559 39,000  Level Fort Worth Center
11:52AM 34.2319 -100.4681 98° East 474 545 39,000  Level Fort Worth Center
11:53AM 34.2122 -100.3292 100° East 464 534 39,000  Level Fort Worth Center
11:54AM 34.1783 -100.1725 105° East 472 543 39,000  Level Fort Worth Center
11:55AM 34.1378 -100.0156 107° East 478 550 39,000 -60 Level Fort Worth Center
11:56AM 34.0972 -99.8564 107° East 484 557 38,900 -660 Descending Fort Worth Center
11:57AM 34.0564 -99.7047 108° East 489 563 37,700 -1,380 Descending Fort Worth Center
11:58AM 34.0153 -99.5483 108° East 484 557 36,200 -1,320 Descending Fort Worth Center
11:59AM 33.9719 -99.3894 108° East 484 557 35,100 -1,140 Descending Fort Worth Center
12:00PM 33.9283 -99.2383 109° East 484 557 34,000 -1,440 Descending Fort Worth Center
12:01PM 33.8889 -99.0850 107° East 484 557 32,300 -1,740 Descending Fort Worth Center
12:02PM 33.8469 -98.9314 108° East 484 557 30,600 -1,560 Descending Fort Worth Center
12:03PM 33.8008 -98.7683 109° East 484 557 29,200 -1,080 Descending Fort Worth Center
12:04PM 33.7625 -98.6353 109° East 473 544 28,500 -900 Descending Fort Worth Center
12:05PM 33.7200 -98.4797 108° East 455 524 27,500 -1,140 Descending Fort Worth Center
12:06PM 33.6794 -98.3444 110° East 445 512 26,300 -1,500 Descending Fort Worth Center
12:07PM 33.6239 -98.2142 117° Southeast 434 499 24,600 -2,040 Descending Fort Worth Center
12:08PM 33.5744 -98.0967 117° Southeast 434 499 22,300 -2,640 Descending Fort Worth Center
12:09PM 33.5189 -97.9617 116° Southeast 414 476 19,400 -2,580 Descending Fort Worth Center
12:10PM 33.4733 -97.8567 117° Southeast 398 458 17,200 -2,280 Descending Fort Worth Center
12:11PM 33.4217 -97.7369 117° Southeast 378 435 14,900 -2,220 Descending Fort Worth Center
12:12PM 33.3781 -97.6397 118° Southeast 371 427 12,800 -1,920 Descending Fort Worth Center
12:13PM 33.3092 -97.5550 134° Southeast 360 414 11,100 -900 Descending Fort Worth Center
12:14PM 33.2342 -97.4656 135° Southeast 349 402 11,000  Descending Fort Worth Center
12:15PM 33.1717 -97.3936 136° Southeast 349 402 11,100  Climbing Fort Worth Center
12:16PM 33.0964 -97.3069 136° Southeast 343 395 11,000 -60 Descending Fort Worth Center
12:17PM 33.0378 -97.2375 135° Southeast 330 380 11,000  Level Fort Worth Center
12:18PM 32.9750 -97.1758 141° Southeast 284 327 11,000 -600 Level Fort Worth Center
12:19PM 32.9144 -97.1733 178° South 246 283 9,900 -1,500 Descending Fort Worth Center
12:20PM 32.8414 -97.1711 179° South 241 277 8,100 -1,860 Descending Fort Worth Center
12:21PM 32.7747 -97.1714 180° South 241 277 6,200 -1,860 Descending Fort Worth Center
12:22PM 32.7100 -97.1642 175° South 230 265 4,400 -1,560 Descending Fort Worth Center
12:23PM 32.6514 -97.1419 162° South 230 265 3,100 -720 Descending Fort Worth Center
12:24PM 32.6325 -97.0828 111° Southeast 188 216 3,000  Descending Fort Worth Center
12:24PM 32.6333 -97.0667 86° East 167 192 3,100  Climbing Dallas / Fort Worth TRACON
12:25PM 32.6833 -97.0500 16° North 173 199 3,000 -120 Descending Dallas / Fort Worth TRACON